Time;durP1;ratioP1;P1;durP2;ratioP2;P2;SDS_P1;SDS_P2;PMS_P1;PMS_P2;Temp;Humidity;BMP_temperature;BMP_pressure;BME280_temperature;BME280_humidity;BME280_pressure;Samples;Min_cycle;Max_cycle;Signal;HPM_P1;HPM_P2
2021/07/12 00:01:19;;;;;;;1999.90;999.90;;;;;;;;;;5312990;27;20405;-85
2021/07/12 00:03:48;;;;;;;1845.95;999.90;;;;;;;;;;5314029;26;20037;-85
2021/07/12 00:06:16;;;;;;;1606.15;999.90;;;;;;;;;;5314070;26;20052;-85
2021/07/12 00:08:44;;;;;;;1999.90;999.90;;;;;;;;;;5315079;26;20407;-86
2021/07/12 00:11:13;;;;;;;1613.78;999.90;;;;;;;;;;5317365;27;20362;-85
2021/07/12 00:13:42;;;;;;;1465.68;990.03;;;;;;;;;;5314903;26;20064;-85
2021/07/12 00:16:21;;;;;;;1671.82;994.88;;;;;;;;;;5313881;27;20028;-85
2021/07/12 00:18:50;;;;;;;1901.13;999.90;;;;;;;;;;5312882;26;20363;-86
2021/07/12 00:21:19;;;;;;;1277.47;945.05;;;;;;;;;;5312260;26;20441;-85
2021/07/12 00:23:49;;;;;;;1115.72;883.22;;;;;;;;;;5313287;27;20413;-85
2021/07/12 00:26:18;;;;;;;1048.95;860.50;;;;;;;;;;5313016;26;20368;-85
2021/07/12 00:28:46;;;;;;;1898.97;991.13;;;;;;;;;;5316071;27;20541;-85
2021/07/12 00:31:15;;;;;;;1603.93;959.28;;;;;;;;;;5312216;26;20025;-85
2021/07/12 00:33:44;;;;;;;1574.25;930.53;;;;;;;;;;5310960;27;20017;-85
2021/07/12 00:36:12;;;;;;;1693.47;947.60;;;;;;;;;;5311910;27;20021;-85
2021/07/12 00:38:41;;;;;;;1999.90;999.90;;;;;;;;;;5312427;27;20344;-85
2021/07/12 00:41:10;;;;;;;1999.90;999.90;;;;;;;;;;5314396;26;20437;-85
2021/07/12 00:43:39;;;;;;;1999.90;999.90;;;;;;;;;;5313678;26;20013;-85
2021/07/12 00:46:08;;;;;;;1999.90;999.90;;;;;;;;;;5313162;27;20040;-85
2021/07/12 00:48:37;;;;;;;1461.72;971.85;;;;;;;;;;5314334;26;20068;-85
2021/07/12 00:51:05;;;;;;;1999.90;999.90;;;;;;;;;;5314685;26;20028;-85
2021/07/12 00:53:37;;;;;;;1819.82;968.08;;;;;;;;;;5312545;27;20029;-85
2021/07/12 00:56:06;;;;;;;1126.47;850.78;;;;;;;;;;5312646;27;20024;-85
2021/07/12 00:58:35;;;;;;;1044.20;865.50;;;;;;;;;;5312387;27;20351;-86
2021/07/12 01:01:06;;;;;;;1214.70;885.33;;;;;;;;;;5316839;26;20013;-85
2021/07/12 01:03:35;;;;;;;988.70;812.78;;;;;;;;;;5313858;27;20024;-85
2021/07/12 01:06:05;;;;;;;1179.15;887.70;;;;;;;;;;5314620;27;20025;-85
2021/07/12 01:08:43;;;;;;;927.30;771.28;;;;;;;;;;5314887;27;20021;-87
2021/07/12 01:11:36;;;;;;;1092.90;816.28;;;;;;;;;;5314673;27;20040;-86
2021/07/12 01:14:27;;;;;;;1156.80;811.15;;;;;;;;;;5313866;26;20028;-85
2021/07/12 01:19:52;;;;;;;1075.82;843.37;;;;;;;;;;5313512;27;20061;-86
2021/07/12 01:22:24;;;;;;;809.50;729.83;;;;;;;;;;5315630;27;20039;-85
2021/07/12 01:25:11;;;;;;;682.92;621.50;;;;;;;;;;5315853;27;20046;-86
2021/07/12 01:27:52;;;;;;;604.22;552.42;;;;;;;;;;5315510;27;20512;-86
2021/07/12 01:30:27;;;;;;;763.25;698.90;;;;;;;;;;5315416;27;20032;-86
2021/07/12 01:32:59;;;;;;;658.15;606.83;;;;;;;;;;5315725;26;20056;-85
2021/07/12 01:35:46;;;;;;;705.37;651.22;;;;;;;;;;5315958;27;20032;-85
2021/07/12 01:38:21;;;;;;;747.40;685.42;;;;;;;;;;5311515;26;20029;-85
2021/07/12 01:41:13;;;;;;;620.00;570.38;;;;;;;;;;5316789;26;20024;-85
2021/07/12 01:43:54;;;;;;;532.15;490.90;;;;;;;;;;5316170;26;20021;-86
2021/07/12 01:46:34;;;;;;;492.67;455.25;;;;;;;;;;5316020;26;20452;-85
2021/07/12 01:49:22;;;;;;;516.42;474.88;;;;;;;;;;5312155;26;20040;-85
2021/07/12 01:51:57;;;;;;;566.05;520.33;;;;;;;;;;5315419;26;20233;-85
2021/07/12 01:54:30;;;;;;;646.75;595.42;;;;;;;;;;5313285;26;20701;-86
2021/07/12 01:57:02;;;;;;;680.17;624.92;;;;;;;;;;5317013;26;20054;-84
2021/07/12 01:59:58;;;;;;;721.90;662.30;;;;;;;;;;5314173;27;20025;-86
2021/07/12 02:02:32;;;;;;;652.28;597.55;;;;;;;;;;5315432;26;20025;-86
2021/07/12 02:05:04;;;;;;;827.83;756.75;;;;;;;;;;5315827;26;20497;-85
2021/07/12 02:07:33;;;;;;;687.00;632.12;;;;;;;;;;5315561;27;20034;-85
2021/07/12 02:10:04;;;;;;;743.05;683.17;;;;;;;;;;5316311;26;20017;-85
2021/07/12 02:12:35;;;;;;;776.37;705.30;;;;;;;;;;5315265;27;20012;-86
2021/07/12 02:15:07;;;;;;;779.28;715.80;;;;;;;;;;5317894;26;20049;-85
2021/07/12 02:17:36;;;;;;;703.20;644.60;;;;;;;;;;5317195;26;20012;-85
2021/07/12 02:20:07;;;;;;;658.17;605.58;;;;;;;;;;5313516;27;20029;-86
2021/07/12 02:22:36;;;;;;;724.22;665.08;;;;;;;;;;5315877;27;20058;-86
2021/07/12 02:25:06;;;;;;;782.47;717.63;;;;;;;;;;5314407;26;20025;-85
2021/07/12 02:27:36;;;;;;;753.00;686.65;;;;;;;;;;5314502;27;20021;-84
2021/07/12 02:30:05;;;;;;;678.22;625.00;;;;;;;;;;5314512;26;20053;-86
2021/07/12 02:32:35;;;;;;;690.60;636.95;;;;;;;;;;5315422;26;20078;-85
2021/07/12 02:35:06;;;;;;;788.15;707.78;;;;;;;;;;5315696;27;20013;-85
2021/07/12 02:37:37;;;;;;;437.55;401.73;;;;;;;;;;5312441;27;20052;-86
2021/07/12 02:40:08;;;;;;;520.38;473.08;;;;;;;;;;5312832;27;20025;-86
2021/07/12 02:42:41;;;;;;;591.15;543.42;;;;;;;;;;5314121;27;20064;-86
2021/07/12 02:45:13;;;;;;;495.27;454.40;;;;;;;;;;5315300;27;20032;-86
2021/07/12 02:47:45;;;;;;;563.40;518.70;;;;;;;;;;5313961;27;20234;-86
2021/07/12 02:50:15;;;;;;;693.08;635.17;;;;;;;;;;5315622;26;20029;-86
2021/07/12 02:52:44;;;;;;;725.65;663.92;;;;;;;;;;5314398;26;20001;-87
2021/07/12 02:55:16;;;;;;;459.92;414.98;;;;;;;;;;5315263;27;20036;-86
2021/07/12 02:57:44;;;;;;;491.05;440.85;;;;;;;;;;5314316;26;20005;-87
2021/07/12 03:00:14;;;;;;;463.33;419.73;;;;;;;;;;5314909;26;20017;-86
2021/07/12 03:02:43;;;;;;;412.65;372.00;;;;;;;;;;5316659;26;20017;-86
2021/07/12 03:05:12;;;;;;;486.30;439.65;;;;;;;;;;5316469;26;20324;-86
2021/07/12 03:08:11;;;;;;;495.58;450.25;;;;;;;;;;5314579;27;20444;-86
2021/07/12 03:10:52;;;;;;;775.17;702.40;;;;;;;;;;5296393;26;20043;-95
2021/07/12 03:13:54;;;;;;;763.22;696.78;;;;;;;;;;5289211;27;20025;-95
2021/07/12 03:18:06;;;;;;;;;;;;;;;;;;;;;
2021/07/12 03:25:34;;;;;;;767.28;697.45;;;;;;;;;;5272008;27;20029;-96
2021/07/12 03:28:50;;;;;;;690.17;626.85;;;;;;;;;;5258101;27;20040;-96
2021/07/12 03:32:16;;;;;;;653.83;596.63;;;;;;;;;;5177008;27;20041;-96
2021/07/12 03:35:57;;;;;;;548.83;500.92;;;;;;;;;;5188706;27;20049;-96
2021/07/12 03:39:27;;;;;;;466.58;429.58;;;;;;;;;;5159703;27;20042;-96
2021/07/12 03:42:34;;;;;;;581.42;530.47;;;;;;;;;;5239504;27;20417;-96
2021/07/12 03:45:50;;;;;;;548.22;500.70;;;;;;;;;;5242798;27;20034;-96
2021/07/12 03:48:57;;;;;;;630.13;574.60;;;;;;;;;;5251267;27;20002;-96
2021/07/12 03:51:57;;;;;;;591.22;541.85;;;;;;;;;;5239132;27;20072;-96
2021/07/12 03:55:44;;;;;;;614.05;561.45;;;;;;;;;;5271960;27;20050;-96
2021/07/12 03:58:46;;;;;;;597.08;544.10;;;;;;;;;;5257946;27;20048;-96
2021/07/12 04:02:04;;;;;;;;;;;;;;;;;;;;;
2021/07/12 04:05:27;;;;;;;;;;;;;;;;;;;;;
2021/07/12 04:16:41;;;;;;;746.92;675.53;;;;;;;;;;5161991;27;20022;-96
2021/07/12 04:24:26;;;;;;;790.90;716.22;;;;;;;;;;5223135;27;20033;-95
2021/07/12 04:27:33;;;;;;;812.63;732.90;;;;;;;;;;5216621;27;20010;-96
2021/07/12 04:30:33;;;;;;;821.80;742.00;;;;;;;;;;5199468;27;20587;-96
2021/07/12 04:33:57;;;;;;;794.20;716.45;;;;;;;;;;5222468;27;20022;-95
2021/07/12 04:36:39;;;;;;;1109.70;874.53;;;;;;;;;;5244254;27;20065;-96
2021/07/12 04:39:24;;;;;;;1075.85;876.22;;;;;;;;;;5247073;27;20017;-96
2021/07/12 04:42:46;;;;;;;;;;;;;;;;;;;;;
2021/07/12 04:45:58;;;;;;;920.97;817.88;;;;;;;;;;5183723;27;20026;-96
2021/07/12 04:49:33;;;;;;;;;;;;;;;;;;;;;
2021/07/12 04:53:02;;;;;;;865.75;778.67;;;;;;;;;;5266589;27;20091;-96
2021/07/12 04:56:29;;;;;;;909.25;812.60;;;;;;;;;;5269827;27;20048;-96
2021/07/12 05:00:02;;;;;;;741.45;675.33;;;;;;;;;;5250282;27;20026;-96
2021/07/12 05:03:43;;;;;;;;;;;;;;;;;;;;;
2021/07/12 05:07:15;;;;;;;719.67;657.70;;;;;;;;;;5228360;27;20064;-96
2021/07/12 05:10:29;;;;;;;707.97;645.75;;;;;;;;;;5258337;27;20030;-96
2021/07/12 05:14:02;;;;;;;700.62;639.72;;;;;;;;;;5259222;27;20400;-96
2021/07/12 05:16:50;;;;;;;865.25;782.67;;;;;;;;;;5253240;27;20042;-96
2021/07/12 05:19:57;;;;;;;;;;;;;;;;;;;;;
2021/07/12 05:23:07;;;;;;;882.28;799.22;;;;;;;;;;5268706;27;20064;-96
2021/07/12 05:25:48;;;;;;;846.28;768.97;;;;;;;;;;5265193;27;20361;-96
2021/07/12 05:28:44;;;;;;;757.75;696.50;;;;;;;;;;5249347;27;20026;-96
2021/07/12 05:31:26;;;;;;;869.33;787.95;;;;;;;;;;5253946;27;20100;-96
2021/07/12 05:34:25;;;;;;;737.00;676.53;;;;;;;;;;5253617;27;20054;-96
2021/07/12 05:37:43;;;;;;;791.47;725.83;;;;;;;;;;5242404;27;20032;-96
2021/07/12 05:40:49;;;;;;;857.40;778.30;;;;;;;;;;5265796;27;20040;-96
2021/07/12 05:44:11;;;;;;;815.40;744.17;;;;;;;;;;5270611;27;20060;-96
2021/07/12 05:47:20;;;;;;;885.67;797.25;;;;;;;;;;5261896;27;20022;-96
2021/07/12 05:50:34;;;;;;;868.83;786.55;;;;;;;;;;5263148;27;20013;-96
2021/07/12 05:53:23;;;;;;;795.75;721.10;;;;;;;;;;5244222;27;20018;-96
2021/07/12 05:56:01;;;;;;;776.13;712.50;;;;;;;;;;5258925;27;20018;-96
2021/07/12 05:58:52;;;;;;;727.78;667.78;;;;;;;;;;5259317;27;20018;-96
2021/07/12 06:01:21;;;;;;;807.72;740.15;;;;;;;;;;5258212;27;20022;-96
2021/07/12 06:03:53;;;;;;;863.97;790.53;;;;;;;;;;5258721;27;20061;-94
2021/07/12 06:06:21;;;;;;;812.45;740.22;;;;;;;;;;5258177;27;20022;-96
2021/07/12 06:08:56;;;;;;;814.15;746.42;;;;;;;;;;5258916;27;20066;-96
2021/07/12 06:11:24;;;;;;;830.00;759.65;;;;;;;;;;5258001;27;20462;-96
2021/07/12 06:14:26;;;;;;;942.72;843.28;;;;;;;;;;5239288;27;20018;-96
2021/07/12 06:17:13;;;;;;;863.83;789.15;;;;;;;;;;5230122;27;20422;-96
2021/07/12 06:19:57;;;;;;;952.50;855.85;;;;;;;;;;5225057;27;20446;-96
2021/07/12 06:22:43;;;;;;;838.17;761.55;;;;;;;;;;5222021;27;20754;-96
2021/07/12 06:25:22;;;;;;;923.45;831.20;;;;;;;;;;5258894;27;20037;-95
2021/07/12 06:27:58;;;;;;;925.90;836.78;;;;;;;;;;5240715;27;20019;-96
2021/07/12 06:30:49;;;;;;;889.53;804.33;;;;;;;;;;5215567;27;20027;-96
2021/07/12 06:33:27;;;;;;;981.87;856.00;;;;;;;;;;5221627;27;20023;-96
2021/07/12 06:36:07;;;;;;;931.00;833.15;;;;;;;;;;5238252;27;20057;-96
2021/07/12 06:38:57;;;;;;;1103.55;871.80;;;;;;;;;;5238720;27;20061;-96
2021/07/12 06:41:50;;;;;;;902.42;806.60;;;;;;;;;;5238126;27;20030;-96
2021/07/12 06:44:58;;;;;;;894.92;803.37;;;;;;;;;;5236920;27;20070;-94
2021/07/12 06:47:50;;;;;;;1008.58;851.95;;;;;;;;;;5237702;27;20026;-95
2021/07/12 06:50:33;;;;;;;876.70;787.45;;;;;;;;;;5238063;27;20015;-95
2021/07/12 06:53:07;;;;;;;913.20;818.70;;;;;;;;;;5236631;27;20014;-96
2021/07/12 06:56:30;;;;;;;850.50;774.12;;;;;;;;;;5224975;27;20033;-96
2021/07/12 06:59:24;;;;;;;899.33;804.97;;;;;;;;;;5239842;27;20034;-96
2021/07/12 07:01:57;;;;;;;985.40;869.37;;;;;;;;;;5219706;27;20022;-96
2021/07/12 07:04:45;;;;;;;744.83;678.88;;;;;;;;;;5235116;27;20046;-96
2021/07/12 07:07:17;;;;;;;768.33;698.62;;;;;;;;;;5235410;27;20058;-96
2021/07/12 07:10:06;;;;;;;764.28;698.33;;;;;;;;;;5235188;27;20439;-95
2021/07/12 07:12:58;;;;;;;995.67;845.25;;;;;;;;;;5222046;27;20033;-96
2021/07/12 07:15:56;;;;;;;692.78;633.25;;;;;;;;;;5222146;27;20495;-96
2021/07/12 07:18:30;;;;;;;992.08;864.33;;;;;;;;;;5237967;27;20021;-96
2021/07/12 07:21:08;;;;;;;758.35;690.00;;;;;;;;;;5220019;27;20034;-96
2021/07/12 07:24:06;;;;;;;981.28;868.85;;;;;;;;;;5241738;27;20018;-96
2021/07/12 07:27:22;;;;;;;954.47;848.62;;;;;;;;;;5237510;27;20078;-96
2021/07/12 07:30:53;;;;;;;883.47;793.35;;;;;;;;;;5217251;27;20685;-96
2021/07/12 07:34:14;;;;;;;1065.85;893.42;;;;;;;;;;5222989;27;20068;-96
2021/07/12 07:37:34;;;;;;;977.10;874.53;;;;;;;;;;5204401;27;20054;-96
2021/07/12 07:41:00;;;;;;;;;;;;;;;;;;;;;
2021/07/12 07:44:57;;;;;;;867.83;774.58;;;;;;;;;;5199382;27;20071;-96
2021/07/12 07:48:58;;;;;;;764.83;693.95;;;;;;;;;;5101695;28;20084;-96
2021/07/12 09:09:41;;;;;;;616.05;554.72;;;;;;;;;;5252808;27;20044;-84
2021/07/12 09:12:13;;;;;;;669.20;600.92;;;;;;;;;;5293127;27;20328;-87
2021/07/12 09:14:59;;;;;;;742.97;662.67;;;;;;;;;;5294929;27;20013;-87
2021/07/12 09:17:32;;;;;;;744.83;662.08;;;;;;;;;;5292764;27;20363;-87
2021/07/12 09:20:02;;;;;;;667.33;600.40;;;;;;;;;;5271628;27;20075;-87
2021/07/12 09:22:35;;;;;;;712.03;635.80;;;;;;;;;;5292301;27;20040;-87
2021/07/12 09:25:04;;;;;;;;;;;;;;;;;;5287625;27;20087;-87
2021/07/12 09:27:33;;;;;;;666.88;598.22;;;;;;;;;;5279413;27;19968;-87
2021/07/12 09:30:05;;;;;;;616.60;556.53;;;;;;;;;;5256557;27;20404;-87
2021/07/12 09:32:35;;;;;;;661.38;593.05;;;;;;;;;;5274550;27;20041;-86
2021/07/12 09:35:18;;;;;;;731.97;654.67;;;;;;;;;;5285847;27;20068;-87
2021/07/12 09:37:57;;;;;;;621.92;562.28;;;;;;;;;;5294079;27;20040;-87
2021/07/12 09:40:28;;;;;;;614.00;553.92;;;;;;;;;;5293168;27;20064;-87
2021/07/12 09:42:57;;;;;;;651.80;591.77;;;;;;;;;;5291927;27;20025;-87
2021/07/12 09:45:28;;;;;;;605.95;549.62;;;;;;;;;;5293855;27;20391;-87
2021/07/12 09:48:05;;;;;;;653.85;588.00;;;;;;;;;;5292420;27;20078;-87
2021/07/12 09:50:34;;;;;;;682.78;616.15;;;;;;;;;;5292280;27;20021;-87
2021/07/12 09:53:06;;;;;;;694.80;627.60;;;;;;;;;;5272497;27;20329;-87
2021/07/12 09:55:45;;;;;;;709.50;638.05;;;;;;;;;;5292066;27;20009;-86
2021/07/12 09:58:15;;;;;;;756.08;675.80;;;;;;;;;;5287195;27;20037;-87
2021/07/12 10:00:47;;;;;;;803.42;713.37;;;;;;;;;;5287168;27;20052;-87
2021/07/12 10:03:16;;;;;;;982.85;793.00;;;;;;;;;;5269135;27;20435;-87
2021/07/12 10:05:52;;;;;;;1011.50;793.40;;;;;;;;;;5293502;27;20009;-86
2021/07/12 10:08:21;;;;;;;784.90;699.08;;;;;;;;;;5271474;27;20033;-86
2021/07/12 10:10:49;;;;;;;727.47;654.53;;;;;;;;;;5292076;27;20018;-86
2021/07/12 10:13:19;;;;;;;893.15;744.50;;;;;;;;;;5292272;27;20754;-87
2021/07/12 10:15:48;;;;;;;638.90;576.90;;;;;;;;;;5290202;27;20025;-87
2021/07/12 10:18:17;;;;;;;715.40;644.22;;;;;;;;;;5293035;27;20061;-87
2021/07/12 10:20:45;;;;;;;769.25;684.80;;;;;;;;;;5295096;27;20017;-87
2021/07/12 10:23:15;;;;;;;821.53;730.55;;;;;;;;;;5290160;27;20096;-86
2021/07/12 10:25:48;;;;;;;910.97;768.55;;;;;;;;;;5289907;27;20053;-87
2021/07/12 10:28:39;;;;;;;753.10;677.15;;;;;;;;;;5288809;27;20018;-86
2021/07/12 10:31:17;;;;;;;768.20;686.78;;;;;;;;;;5290330;27;20071;-87
2021/07/12 10:33:46;;;;;;;764.53;683.97;;;;;;;;;;5291810;27;20063;-87
2021/07/12 10:36:33;;;;;;;737.58;662.53;;;;;;;;;;5289567;27;20033;-86
2021/07/12 10:39:03;;;;;;;728.03;648.83;;;;;;;;;;5289917;27;20091;-86
2021/07/12 10:41:31;;;;;;;738.50;663.17;;;;;;;;;;5290871;27;20018;-87
2021/07/12 10:44:05;;;;;;;1315.05;875.67;;;;;;;;;;5294129;27;20029;-87
2021/07/12 10:46:36;;;;;;;1630.55;952.75;;;;;;;;;;5293788;27;20043;-86
2021/07/12 10:49:06;;;;;;;1345.90;888.92;;;;;;;;;;5290078;27;20039;-86
2021/07/12 10:51:36;;;;;;;1176.30;827.00;;;;;;;;;;5292690;27;20006;-85
2021/07/12 10:54:14;;;;;;;1718.25;969.92;;;;;;;;;;5288662;27;20097;-86
2021/07/12 10:56:45;;;;;;;1249.05;861.10;;;;;;;;;;5294696;27;20047;-86
2021/07/12 10:59:25;;;;;;;1037.07;787.70;;;;;;;;;;5286636;27;20040;-87
2021/07/12 11:01:53;;;;;;;826.15;725.40;;;;;;;;;;5289613;27;20048;-87
2021/07/12 11:04:35;;;;;;;1491.13;927.78;;;;;;;;;;5292925;27;20062;-86
2021/07/12 11:07:05;;;;;;;931.80;779.17;;;;;;;;;;5292213;27;20652;-87
2021/07/12 11:09:43;;;;;;;1379.85;901.22;;;;;;;;;;5288438;27;20070;-86
2021/07/12 11:12:29;;;;;;;1092.07;809.88;;;;;;;;;;5292783;27;20005;-86
2021/07/12 11:15:13;;;;;;;827.83;738.10;;;;;;;;;;5292285;27;20251;-86
2021/07/12 11:17:48;;;;;;;1097.20;836.72;;;;;;;;;;5291278;27;20197;-87
2021/07/12 11:20:17;;;;;;;1291.63;878.15;;;;;;;;;;5291957;27;20263;-87
2021/07/12 11:22:53;;;;;;;1095.45;836.92;;;;;;;;;;5287565;27;20493;-86
2021/07/12 11:25:41;;;;;;;1230.68;871.55;;;;;;;;;;5290116;27;20025;-86
2021/07/12 11:28:09;;;;;;;1163.57;841.78;;;;;;;;;;5292014;27;20013;-86
2021/07/12 11:30:38;;;;;;;1371.30;908.20;;;;;;;;;;5291001;27;20045;-86
2021/07/12 11:33:07;;;;;;;1455.85;917.90;;;;;;;;;;5272577;27;20116;-86
2021/07/12 11:35:36;;;;;;;1162.60;868.50;;;;;;;;;;5290147;27;20052;-86
2021/07/12 11:38:08;;;;;;;1295.03;895.40;;;;;;;;;;5287620;27;20060;-86
2021/07/12 11:40:37;;;;;;;1141.90;850.03;;;;;;;;;;5283914;27;20009;-86
2021/07/12 11:43:06;;;;;;;1178.13;861.75;;;;;;;;;;5292533;27;20033;-86
2021/07/12 11:45:35;;;;;;;1252.32;874.92;;;;;;;;;;5291617;27;20096;-87
2021/07/12 11:48:06;;;;;;;1329.28;880.47;;;;;;;;;;5284427;27;20309;-86
2021/07/12 11:50:35;;;;;;;1010.92;810.88;;;;;;;;;;5286579;27;20158;-86
2021/07/12 11:53:08;;;;;;;1856.00;992.20;;;;;;;;;;5288037;27;20017;-86
2021/07/12 11:55:38;;;;;;;1448.70;920.30;;;;;;;;;;5281815;27;20060;-86
2021/07/12 11:58:07;;;;;;;1101.68;845.97;;;;;;;;;;5284640;27;20017;-87
2021/07/12 12:00:36;;;;;;;1265.70;893.22;;;;;;;;;;5281181;27;20096;-86
2021/07/12 12:03:08;;;;;;;1690.28;969.83;;;;;;;;;;5290536;27;20077;-86
2021/07/12 12:05:41;;;;;;;916.45;801.35;;;;;;;;;;5291258;27;20383;-86
2021/07/12 12:08:14;;;;;;;1544.15;931.65;;;;;;;;;;5289116;27;20017;-86
2021/07/12 12:10:43;;;;;;;953.15;773.50;;;;;;;;;;5270156;27;20502;-87
2021/07/12 12:13:12;;;;;;;1105.25;847.75;;;;;;;;;;5270746;27;20036;-86
2021/07/12 12:15:42;;;;;;;1484.32;919.00;;;;;;;;;;5292561;27;20055;-86
2021/07/12 12:18:12;;;;;;;1675.38;950.20;;;;;;;;;;5266391;27;20080;-86
2021/07/12 12:20:42;;;;;;;1808.28;992.55;;;;;;;;;;5286101;27;20484;-85
2021/07/12 12:23:18;;;;;;;1376.40;916.42;;;;;;;;;;5271948;27;20021;-85
2021/07/12 12:25:47;;;;;;;1718.50;988.92;;;;;;;;;;5291731;27;20104;-86
2021/07/12 12:28:23;;;;;;;1192.60;851.33;;;;;;;;;;5271148;27;20323;-85
2021/07/12 12:30:52;;;;;;;1757.78;976.72;;;;;;;;;;5293835;27;20084;-86
2021/07/12 12:33:25;;;;;;;1865.05;999.90;;;;;;;;;;5273037;27;20082;-85
2021/07/12 12:35:58;;;;;;;1215.43;884.97;;;;;;;;;;5292042;27;20423;-85
2021/07/12 12:38:27;;;;;;;1760.40;992.83;;;;;;;;;;5293994;27;20027;-86
2021/07/12 12:41:05;;;;;;;1142.95;897.25;;;;;;;;;;5291819;27;20436;-85
2021/07/12 12:43:35;;;;;;;1421.22;917.75;;;;;;;;;;5293676;27;20087;-86
2021/07/12 12:46:06;;;;;;;1730.65;999.90;;;;;;;;;;5291838;27;20059;-85
2021/07/12 12:48:43;;;;;;;1999.90;999.90;;;;;;;;;;5292725;27;20010;-85
2021/07/12 12:51:29;;;;;;;1429.45;922.45;;;;;;;;;;5274914;27;20029;-85
2021/07/12 12:54:01;;;;;;;1372.78;905.15;;;;;;;;;;5291438;27;20040;-85
2021/07/12 12:56:34;;;;;;;1758.07;992.00;;;;;;;;;;5296020;27;20025;-85
2021/07/12 12:59:09;;;;;;;1509.95;963.72;;;;;;;;;;5292829;27;20481;-85
2021/07/12 13:01:42;;;;;;;1562.50;974.28;;;;;;;;;;5291890;27;20033;-85
2021/07/12 13:04:11;;;;;;;;;;;;;;;;;;5292990;27;20043;-85
2021/07/12 13:06:43;;;;;;;1186.30;888.80;;;;;;;;;;5294787;27;19986;-85
2021/07/12 13:09:13;;;;;;;1518.68;984.13;;;;;;;;;;5290662;27;20095;-85
2021/07/12 13:11:43;;;;;;;1898.30;999.90;;;;;;;;;;5291837;27;20369;-85
2021/07/12 13:14:12;;;;;;;1838.78;999.90;;;;;;;;;;5293775;27;20877;-84
2021/07/12 13:16:40;;;;;;;976.92;845.83;;;;;;;;;;5294664;27;20058;-84
2021/07/12 13:19:10;;;;;;;1999.90;999.90;;;;;;;;;;5291882;27;20048;-85
2021/07/12 13:21:52;;;;;;;1325.15;913.97;;;;;;;;;;5294622;27;20055;-84
2021/07/12 13:24:44;;;;;;;1491.25;989.03;;;;;;;;;;5290250;27;20045;-85
2021/07/12 13:27:22;;;;;;;1293.22;917.97;;;;;;;;;;5268545;27;20005;-85
2021/07/12 13:29:51;;;;;;;1865.60;999.90;;;;;;;;;;5264808;27;20521;-85
2021/07/12 13:32:19;;;;;;;1805.90;999.90;;;;;;;;;;5288612;27;20018;-84
2021/07/12 13:34:55;;;;;;;1692.85;998.30;;;;;;;;;;5285137;27;20037;-85
2021/07/12 13:37:24;;;;;;;1900.75;999.90;;;;;;;;;;5281965;27;20108;-86
2021/07/12 13:39:53;;;;;;;1983.53;999.90;;;;;;;;;;5291743;27;20017;-85
2021/07/12 13:42:22;;;;;;;1518.80;984.15;;;;;;;;;;5271170;27;20523;-85
2021/07/12 13:44:51;;;;;;;1999.90;999.90;;;;;;;;;;5287891;27;20059;-85
2021/07/12 13:47:20;;;;;;;1999.90;999.90;;;;;;;;;;5283943;27;20052;-85
2021/07/12 13:49:48;;;;;;;1656.40;999.53;;;;;;;;;;5286635;27;20086;-86
2021/07/12 13:52:17;;;;;;;1240.38;917.78;;;;;;;;;;5290421;27;20060;-86
2021/07/12 13:54:49;;;;;;;1999.90;999.90;;;;;;;;;;5282656;27;20055;-86
2021/07/12 13:57:18;;;;;;;1331.45;954.60;;;;;;;;;;5284332;27;20511;-85
2021/07/12 13:59:46;;;;;;;1572.82;992.53;;;;;;;;;;5290900;27;20031;-86
2021/07/12 14:02:15;;;;;;;1748.40;994.60;;;;;;;;;;5283876;27;20458;-85
2021/07/12 14:04:45;;;;;;;1997.82;999.90;;;;;;;;;;5265036;27;20026;-85
2021/07/12 14:07:14;;;;;;;1618.47;964.78;;;;;;;;;;5288993;27;20345;-85
2021/07/12 14:09:43;;;;;;;1971.82;999.90;;;;;;;;;;5286045;27;20025;-85
2021/07/12 14:12:13;;;;;;;1488.57;965.33;;;;;;;;;;5281526;27;20057;-86
2021/07/12 14:14:41;;;;;;;1741.88;999.90;;;;;;;;;;5287451;27;20013;-86
2021/07/12 14:17:10;;;;;;;1756.53;999.90;;;;;;;;;;5290686;27;20048;-85
2021/07/12 14:19:39;;;;;;;1469.00;949.65;;;;;;;;;;5282900;27;20053;-85
2021/07/12 14:22:08;;;;;;;1967.70;999.90;;;;;;;;;;5264763;27;20128;-86
2021/07/12 14:24:37;;;;;;;1808.88;999.90;;;;;;;;;;5284549;27;20286;-85
2021/07/12 14:27:06;;;;;;;1901.93;999.90;;;;;;;;;;5284712;27;20408;-85
2021/07/12 14:29:35;;;;;;;1982.82;999.90;;;;;;;;;;5284021;27;20061;-85
2021/07/12 14:32:03;;;;;;;1999.90;999.90;;;;;;;;;;5285162;27;20017;-86
2021/07/12 14:34:32;;;;;;;1900.05;999.90;;;;;;;;;;5286302;27;20758;-85
2021/07/12 14:37:00;;;;;;;1200.65;908.42;;;;;;;;;;5285466;27;20097;-86
2021/07/12 14:39:29;;;;;;;1547.10;956.80;;;;;;;;;;5285320;27;20109;-85
2021/07/12 14:41:58;;;;;;;1999.90;999.90;;;;;;;;;;5284676;27;20124;-85
2021/07/12 14:44:26;;;;;;;1906.97;999.90;;;;;;;;;;5265764;27;20040;-85
2021/07/12 14:46:55;;;;;;;1416.55;948.75;;;;;;;;;;5286308;27;20029;-86
2021/07/12 14:49:23;;;;;;;1729.50;997.63;;;;;;;;;;5282946;27;20380;-85
2021/07/12 14:51:52;;;;;;;1587.30;986.67;;;;;;;;;;5284249;27;20803;-85
2021/07/12 14:54:21;;;;;;;1741.30;997.10;;;;;;;;;;5283635;27;20324;-85
2021/07/12 14:56:50;;;;;;;1844.18;999.90;;;;;;;;;;5285094;27;20029;-85
2021/07/12 14:59:18;;;;;;;1732.05;999.90;;;;;;;;;;5284977;27;20048;-85
2021/07/12 15:01:47;;;;;;;1886.95;999.90;;;;;;;;;;5286063;27;20021;-85
2021/07/12 15:04:16;;;;;;;1592.88;982.70;;;;;;;;;;5287210;27;20061;-85
2021/07/12 15:06:44;;;;;;;1836.18;999.90;;;;;;;;;;5265754;27;20388;-85
2021/07/12 15:09:13;;;;;;;1747.78;999.80;;;;;;;;;;5285594;27;20014;-85
2021/07/12 15:11:43;;;;;;;1732.40;990.60;;;;;;;;;;5286463;27;20049;-86
2021/07/12 15:14:11;;;;;;;1886.68;999.90;;;;;;;;;;5265220;27;20436;-86
2021/07/12 15:16:39;;;;;;;1458.80;957.42;;;;;;;;;;5282681;27;20402;-85
2021/07/12 15:19:08;;;;;;;1939.25;999.90;;;;;;;;;;5282884;27;20447;-85
2021/07/12 15:21:37;;;;;;;1745.93;999.90;;;;;;;;;;5286034;27;20036;-85
2021/07/12 15:24:05;;;;;;;1472.65;960.20;;;;;;;;;;5286094;27;20041;-84
2021/07/12 15:26:34;;;;;;;1589.07;981.35;;;;;;;;;;5282981;27;20025;-86
2021/07/12 15:29:03;;;;;;;1265.93;903.63;;;;;;;;;;5285312;27;20040;-85
2021/07/12 15:31:31;;;;;;;1796.47;998.42;;;;;;;;;;5284174;27;20094;-85
2021/07/12 15:34:00;;;;;;;1319.95;924.35;;;;;;;;;;5283962;27;20858;-85
2021/07/12 15:36:28;;;;;;;1367.43;942.42;;;;;;;;;;5283009;27;20051;-85
2021/07/12 15:38:56;;;;;;;1455.93;964.05;;;;;;;;;;5286343;27;20809;-85
2021/07/12 15:41:25;;;;;;;1990.38;999.90;;;;;;;;;;5285132;27;20061;-85
2021/07/12 15:43:54;;;;;;;1704.18;996.60;;;;;;;;;;5266768;27;20052;-86
2021/07/12 15:46:22;;;;;;;1456.13;957.87;;;;;;;;;;5287162;27;20451;-85
2021/07/12 15:48:51;;;;;;;1999.90;999.90;;;;;;;;;;5286381;27;20083;-86
2021/07/12 15:51:19;;;;;;;1951.35;999.90;;;;;;;;;;5289226;27;20051;-86
2021/07/12 15:53:48;;;;;;;1905.53;999.90;;;;;;;;;;5282529;27;20061;-85
2021/07/12 15:56:17;;;;;;;1420.30;961.67;;;;;;;;;;5280223;27;20096;-85
2021/07/12 15:58:46;;;;;;;1405.53;944.85;;;;;;;;;;5285862;27;20120;-85
2021/07/12 16:01:14;;;;;;;1394.47;944.63;;;;;;;;;;5285095;27;20071;-85
2021/07/12 16:03:44;;;;;;;1556.68;981.80;;;;;;;;;;5284689;27;20391;-85
2021/07/12 16:06:12;;;;;;;1925.68;999.90;;;;;;;;;;5281228;27;20021;-85
2021/07/12 16:08:41;;;;;;;1256.50;922.55;;;;;;;;;;5288984;27;20047;-86
2021/07/12 16:11:10;;;;;;;1569.60;989.30;;;;;;;;;;5284535;27;20021;-85
2021/07/12 16:13:38;;;;;;;1525.30;977.40;;;;;;;;;;5264922;27;20152;-86
2021/07/12 16:16:07;;;;;;;1772.07;999.90;;;;;;;;;;5282086;27;20319;-85
2021/07/12 16:18:37;;;;;;;1426.32;955.10;;;;;;;;;;5281862;27;20025;-85
2021/07/12 16:21:06;;;;;;;1666.50;988.40;;;;;;;;;;5283924;27;20059;-86
2021/07/12 16:23:34;;;;;;;1578.85;972.20;;;;;;;;;;5265866;27;20017;-85
2021/07/12 16:26:04;;;;;;;1497.45;969.08;;;;;;;;;;5287129;27;20082;-85
2021/07/12 16:28:34;;;;;;;1392.05;941.30;;;;;;;;;;5284723;27;20036;-85
2021/07/12 16:31:02;;;;;;;1848.25;999.90;;;;;;;;;;5292238;27;20388;-84
2021/07/12 16:33:31;;;;;;;1229.00;892.50;;;;;;;;;;5291068;27;20029;-85
2021/07/12 16:36:01;;;;;;;1808.00;999.45;;;;;;;;;;5282767;27;20049;-85
2021/07/12 16:38:29;;;;;;;1454.05;912.88;;;;;;;;;;5285214;27;20038;-84
2021/07/12 16:41:01;;;;;;;1898.50;999.90;;;;;;;;;;5282192;27;20060;-84
2021/07/12 16:43:30;;;;;;;1965.35;999.90;;;;;;;;;;5265111;27;20363;-84
2021/07/12 16:46:19;;;;;;;1656.53;999.50;;;;;;;;;;5280617;27;20049;-85